Time;durP1;ratioP1;P1;durP2;ratioP2;P2;SDS_P1;SDS_P2;PMS_P1;PMS_P2;Temp;Humidity;BMP_temperature;BMP_pressure;BME280_temperature;BME280_humidity;BME280_pressure;Samples;Min_cycle;Max_cycle;Signal;HPM_P1;HPM_P2
2022/12/30 00:00:01;;;;;;;0.63;0.30;;;8.20;99.90;;;;;;4974496;28;20089;-83
2022/12/30 00:02:26;;;;;;;1.83;0.60;;;8.30;99.90;;;;;;4987556;28;20471;-83
2022/12/30 00:04:52;;;;;;;0.77;0.30;;;8.30;99.90;;;;;;4986050;28;20034;-83
2022/12/30 00:07:18;;;;;;;0.47;0.20;;;8.30;99.90;;;;;;4991868;28;20030;-82
2022/12/30 00:09:45;;;;;;;1.23;0.40;;;8.30;99.90;;;;;;4976750;28;20133;-83
2022/12/30 00:34:17;;;;;;;0.57;0.35;;;8.30;99.90;;;;;;4989456;28;19937;-80
2022/12/30 00:36:43;;;;;;;1.52;0.30;;;8.40;99.90;;;;;;4987193;28;20035;-81
2022/12/30 00:39:09;;;;;;;1.83;0.40;;;8.40;99.90;;;;;;4990886;28;20030;-81
2022/12/30 00:44:19;;;;;;;1.10;0.40;;;8.40;99.90;;;;;;4994813;28;20053;-81
2022/12/30 00:46:45;;;;;;;0.57;0.30;;;8.30;99.90;;;;;;4977010;28;20491;-81
2022/12/30 00:57:23;;;;;;;1.35;0.30;;;8.30;99.90;;;;;;4992369;28;20053;-79
2022/12/30 00:59:48;;;;;;;1.85;0.30;;;8.20;99.90;;;;;;4989990;28;20483;-79
2022/12/30 01:02:14;;;;;;;0.50;0.30;;;8.30;99.90;;;;;;4990398;28;20525;-79
2022/12/30 01:04:39;;;;;;;0.85;0.20;;;8.20;99.90;;;;;;4975190;28;20034;-79
2022/12/30 01:07:05;;;;;;;1.02;0.30;;;8.20;99.90;;;;;;4977051;28;20057;-80
2022/12/30 01:09:34;;;;;;;3.25;0.40;;;8.20;99.90;;;;;;4990842;28;20034;-80
2022/12/30 01:12:09;;;;;;;0.80;0.32;;;8.20;99.90;;;;;;4976556;28;20038;-80
2022/12/30 01:14:42;;;;;;;1.38;0.20;;;8.20;99.90;;;;;;4977333;28;20031;-81
2022/12/30 01:17:11;;;;;;;1.40;0.40;;;8.30;99.90;;;;;;4993032;28;20504;-79
2022/12/30 01:19:38;;;;;;;0.35;0.13;;;8.20;99.90;;;;;;4978008;28;20030;-80
2022/12/30 01:22:05;;;;;;;1.00;0.30;;;8.20;99.90;;;;;;4995803;28;20022;-79
2022/12/30 01:24:30;;;;;;;1.13;0.20;;;8.20;99.90;;;;;;4994045;28;20446;-79
2022/12/30 01:26:56;;;;;;;1.10;0.22;;;8.10;99.90;;;;;;4991683;28;20113;-79
2022/12/30 01:29:29;;;;;;;0.75;0.30;;;8.20;99.90;;;;;;4992552;28;20022;-80
2022/12/30 01:31:55;;;;;;;0.22;0.10;;;8.20;99.90;;;;;;4987052;28;20839;-80
2022/12/30 01:34:21;;;;;;;1.77;0.20;;;8.10;99.90;;;;;;4993859;28;20026;-80
2022/12/30 01:36:47;;;;;;;1.42;0.20;;;8.10;99.90;;;;;;4995129;28;20027;-79
2022/12/30 01:39:12;;;;;;;0.85;0.20;;;8.00;99.90;;;;;;4990542;28;20493;-80
2022/12/30 01:41:38;;;;;;;0.63;0.30;;;8.00;99.90;;;;;;4992102;28;20027;-79
2022/12/30 01:44:41;;;;;;;1.40;0.30;;;8.00;99.90;;;;;;4994729;28;20023;-77
2022/12/30 01:47:11;;;;;;;1.08;0.30;;;8.00;99.90;;;;;;5007302;28;20018;-80
2022/12/30 01:49:42;;;;;;;0.82;0.20;;;7.90;99.90;;;;;;5015178;28;20037;-80
2022/12/30 01:52:09;;;;;;;1.52;0.40;;;7.90;99.90;;;;;;5003700;28;20021;-80
2022/12/30 01:54:36;;;;;;;0.43;0.20;;;7.90;99.90;;;;;;4994064;28;20073;-81
2022/12/30 01:57:04;;;;;;;0.30;0.20;;;7.90;99.90;;;;;;5002905;28;20037;-80
2022/12/30 01:59:30;;;;;;;0.82;0.30;;;7.90;99.90;;;;;;4973311;28;20046;-80
2022/12/30 02:02:01;;;;;;;0.28;0.20;;;7.90;99.90;;;;;;4995669;28;20114;-80
2022/12/30 02:04:27;;;;;;;1.23;0.30;;;7.90;99.90;;;;;;4986257;28;20116;-80
2022/12/30 02:07:17;;;;;;;1.27;0.22;;;7.90;99.90;;;;;;4986695;28;20026;-81
2022/12/30 02:09:43;;;;;;;0.50;0.30;;;7.90;99.90;;;;;;4987213;28;20032;-80
2022/12/30 02:12:11;;;;;;;1.73;0.60;;;7.90;99.90;;;;;;4987305;28;20031;-79
2022/12/30 02:14:39;;;;;;;1.25;0.55;;;7.90;99.90;;;;;;4990090;28;20053;-80
2022/12/30 02:17:23;;;;;;;0.73;0.32;;;7.90;99.90;;;;;;4989037;28;20027;-80
2022/12/30 02:19:49;;;;;;;;;;;7.90;99.90;;;;;;4986723;28;20038;-79
2022/12/30 02:22:50;;;;;;;1.45;0.45;;;7.90;99.90;;;;;;4990957;28;20392;-80
2022/12/30 02:25:37;;;;;;;1.60;0.30;;;7.90;99.90;;;;;;4988864;28;20033;-80
2022/12/30 02:28:15;;;;;;;0.95;0.25;;;7.90;99.90;;;;;;4987243;28;20029;-79
2022/12/30 02:31:18;;;;;;;1.02;0.22;;;7.90;99.90;;;;;;4988679;28;20201;-80
2022/12/30 02:33:59;;;;;;;1.08;0.47;;;7.80;99.90;;;;;;4974582;28;20031;-80
2022/12/30 02:36:49;;;;;;;1.70;0.32;;;7.80;99.90;;;;;;4988254;28;20045;-80
2022/12/30 02:39:29;;;;;;;0.38;0.20;;;7.80;99.90;;;;;;4992299;28;20030;-79
2022/12/30 02:45:15;;;;;;;1.20;0.30;;;7.80;99.90;;;;;;4988059;28;20050;-79
2022/12/30 02:48:00;;;;;;;0.80;0.40;;;7.80;99.90;;;;;;4990202;28;20022;-80
2022/12/30 02:53:16;;;;;;;1.25;0.40;;;7.70;99.90;;;;;;4992129;28;20093;-80
2022/12/30 02:55:42;;;;;;;1.10;0.30;;;7.70;99.90;;;;;;4987821;28;20121;-80
2022/12/30 02:58:08;;;;;;;2.25;0.35;;;7.60;99.90;;;;;;4988088;28;20468;-80
2022/12/30 03:03:59;;;;;;;2.80;0.30;;;7.60;99.90;;;;;;4989239;28;20069;-80
2022/12/30 03:06:50;;;;;;;1.35;0.30;;;7.50;99.90;;;;;;4989478;28;20030;-80
2022/12/30 03:09:35;;;;;;;2.25;0.40;;;7.50;99.90;;;;;;4990197;28;20053;-80
2022/12/30 03:12:24;;;;;;;1.92;0.20;;;7.40;99.90;;;;;;4989190;28;20116;-80
2022/12/30 03:15:04;;;;;;;1.38;0.30;;;7.40;99.90;;;;;;4990278;28;20035;-80
2022/12/30 03:17:36;;;;;;;1.05;0.28;;;7.40;99.90;;;;;;4987545;28;20156;-80
2022/12/30 03:20:07;;;;;;;0.70;0.30;;;7.40;99.90;;;;;;4972961;28;20084;-81
2022/12/30 03:28:08;;;;;;;3.05;0.50;;;7.20;99.90;;;;;;4989669;28;20053;-80
2022/12/30 03:30:39;;;;;;;0.30;0.30;;;7.20;99.90;;;;;;4989366;28;20022;-81
2022/12/30 03:33:05;;;;;;;1.27;0.30;;;7.20;99.90;;;;;;4986817;28;20407;-80
2022/12/30 03:35:35;;;;;;;2.90;0.50;;;7.20;99.90;;;;;;4976011;28;20074;-80
2022/12/30 03:38:03;;;;;;;0.85;0.28;;;7.20;99.90;;;;;;4969725;28;20498;-81
2022/12/30 03:40:33;;;;;;;1.65;0.47;;;7.10;99.90;;;;;;4988117;28;20061;-80
2022/12/30 03:42:59;;;;;;;1.75;0.38;;;7.10;99.90;;;;;;4989872;28;20038;-80
2022/12/30 03:45:25;;;;;;;0.77;0.22;;;7.10;99.90;;;;;;4985635;28;20061;-80
2022/12/30 03:47:51;;;;;;;2.17;0.30;;;7.00;99.90;;;;;;4985586;28;20523;-80
2022/12/30 03:50:17;;;;;;;0.98;0.28;;;7.00;99.90;;;;;;4989486;28;20042;-80
2022/12/30 03:52:42;;;;;;;1.75;0.30;;;7.00;99.90;;;;;;4975046;28;20038;-80
2022/12/30 03:55:09;;;;;;;0.90;0.30;;;7.00;99.90;;;;;;4988942;28;20038;-80
2022/12/30 03:57:36;;;;;;;4.13;0.40;;;7.00;99.90;;;;;;4990251;28;20145;-80
2022/12/30 04:00:03;;;;;;;0.70;0.38;;;6.90;99.90;;;;;;4989127;28;20035;-80
2022/12/30 04:02:28;;;;;;;1.52;0.40;;;6.90;99.90;;;;;;4974199;28;20033;-80
2022/12/30 04:04:54;;;;;;;1.30;0.40;;;6.90;99.90;;;;;;4971443;28;20027;-80
2022/12/30 04:07:19;;;;;;;0.70;0.40;;;6.90;99.90;;;;;;4984463;28;20034;-80
2022/12/30 04:09:45;;;;;;;0.85;0.40;;;6.80;99.90;;;;;;4988037;28;20109;-81
2022/12/30 04:12:11;;;;;;;2.15;0.40;;;6.80;99.90;;;;;;4990233;28;20475;-80
2022/12/30 04:14:36;;;;;;;2.05;0.22;;;6.80;99.90;;;;;;4989221;28;20485;-80
2022/12/30 04:17:02;;;;;;;1.85;0.70;;;6.80;99.90;;;;;;4987667;28;20031;-80
2022/12/30 04:19:27;;;;;;;0.93;0.30;;;6.70;99.90;;;;;;4970019;28;20046;-80
2022/12/30 04:21:53;;;;;;;1.27;0.38;;;6.70;99.90;;;;;;4987956;28;20028;-80
2022/12/30 04:24:19;;;;;;;0.70;0.30;;;6.60;99.90;;;;;;4988076;28;20034;-81
2022/12/30 04:26:44;;;;;;;0.73;0.30;;;6.60;99.90;;;;;;4987289;28;20049;-80
2022/12/30 04:29:10;;;;;;;0.88;0.30;;;6.60;99.90;;;;;;4986138;28;20026;-81
2022/12/30 04:31:36;;;;;;;1.27;0.40;;;6.60;99.90;;;;;;4988808;28;20506;-81
2022/12/30 04:34:01;;;;;;;0.45;0.30;;;6.50;99.90;;;;;;4971409;28;20031;-80
2022/12/30 04:36:27;;;;;;;0.30;0.30;;;6.50;99.90;;;;;;4990139;28;20034;-80
2022/12/30 04:38:53;;;;;;;1.05;0.30;;;6.50;99.90;;;;;;4987796;28;20033;-80
2022/12/30 04:41:20;;;;;;;1.23;0.50;;;6.40;99.90;;;;;;4977397;28;20487;-79
2022/12/30 04:43:46;;;;;;;1.40;0.60;;;6.40;99.90;;;;;;4977758;28;20050;-80
2022/12/30 04:46:12;;;;;;;1.90;0.55;;;6.40;99.90;;;;;;4988332;28;20030;-80
2022/12/30 04:48:38;;;;;;;1.45;0.40;;;6.40;99.90;;;;;;4986366;28;20541;-80
2022/12/30 04:51:04;;;;;;;1.02;0.52;;;6.40;99.90;;;;;;4990226;28;20035;-80
2022/12/30 04:53:30;;;;;;;0.60;0.43;;;6.40;99.90;;;;;;4970813;28;20034;-80
2022/12/30 04:55:56;;;;;;;0.93;0.40;;;6.30;99.90;;;;;;4990328;28;20025;-80
2022/12/30 04:58:23;;;;;;;2.50;0.52;;;6.30;99.90;;;;;;4973340;28;20038;-80
2022/12/30 05:00:50;;;;;;;0.60;0.40;;;6.30;99.90;;;;;;4982111;28;20026;-80
2022/12/30 05:03:16;;;;;;;1.17;0.40;;;6.30;99.90;;;;;;4986072;28;20033;-80
2022/12/30 05:05:42;;;;;;;0.98;0.50;;;6.30;99.90;;;;;;4988873;28;20110;-80
2022/12/30 05:08:08;;;;;;;1.63;0.50;;;6.30;99.90;;;;;;4974498;28;20053;-80
2022/12/30 05:10:35;;;;;;;1.58;0.43;;;6.30;99.90;;;;;;4985560;28;20407;-80
2022/12/30 05:13:01;;;;;;;0.95;0.45;;;6.30;99.90;;;;;;4988036;28;20058;-80
2022/12/30 05:15:27;;;;;;;1.80;0.40;;;6.30;99.90;;;;;;4988135;28;20046;-80
2022/12/30 05:17:52;;;;;;;0.63;0.35;;;6.20;99.90;;;;;;4987378;28;20041;-80
2022/12/30 05:20:18;;;;;;;1.45;0.55;;;6.20;99.90;;;;;;4986985;28;20026;-80
2022/12/30 05:22:43;;;;;;;1.23;0.55;;;6.20;99.90;;;;;;4985883;28;20394;-80
2022/12/30 05:27:54;;;;;;;1.90;0.80;;;6.20;99.90;;;;;;4988131;28;21425;-80
2022/12/30 05:30:19;;;;;;;1.40;0.50;;;6.20;99.90;;;;;;4970302;28;20065;-80
2022/12/30 05:32:45;;;;;;;1.17;0.50;;;6.20;99.90;;;;;;4977305;28;20031;-80
2022/12/30 05:35:11;;;;;;;2.05;0.75;;;6.20;99.90;;;;;;4972824;28;20038;-79
2022/12/30 05:37:37;;;;;;;1.70;0.80;;;6.20;99.90;;;;;;4990810;28;20031;-80
2022/12/30 05:40:03;;;;;;;2.03;0.85;;;6.20;99.90;;;;;;4971305;28;20121;-80
2022/12/30 05:42:29;;;;;;;1.65;0.75;;;6.20;99.90;;;;;;4988349;28;20101;-82
2022/12/30 05:44:54;;;;;;;2.65;0.50;;;6.10;99.90;;;;;;4989558;28;20528;-81
2022/12/30 05:47:20;;;;;;;1.90;0.90;;;6.20;99.90;;;;;;4993893;28;20036;-81
2022/12/30 05:49:45;;;;;;;1.23;0.73;;;6.10;99.90;;;;;;4991518;28;20061;-81
2022/12/30 05:52:11;;;;;;;1.95;0.80;;;6.20;99.90;;;;;;4991013;28;20105;-81
2022/12/30 05:54:37;;;;;;;1.50;0.60;;;6.10;99.90;;;;;;4992062;28;20141;-81
2022/12/30 05:57:03;;;;;;;1.23;0.55;;;6.10;99.90;;;;;;4990530;28;20481;-81
2022/12/30 05:59:28;;;;;;;0.80;0.40;;;6.10;99.90;;;;;;4972671;28;20528;-86
2022/12/30 06:01:54;;;;;;;2.55;0.70;;;6.10;99.90;;;;;;4988554;28;20022;-85
2022/12/30 06:04:20;;;;;;;1.35;0.47;;;6.10;99.90;;;;;;4987093;28;20031;-86
2022/12/30 06:06:45;;;;;;;8.30;5.78;;;6.20;99.90;;;;;;4976039;28;20109;-86
2022/12/30 06:09:11;;;;;;;2.65;1.30;;;6.30;99.90;;;;;;4989428;28;20019;-85
2022/12/30 06:11:37;;;;;;;5.38;1.25;;;6.30;99.90;;;;;;4977466;28;20031;-86
2022/12/30 06:14:02;;;;;;;4.32;0.70;;;6.40;99.90;;;;;;4990542;28;20038;-86
2022/12/30 06:16:28;;;;;;;1.80;0.60;;;6.40;99.90;;;;;;4991493;28;20084;-81
2022/12/30 06:18:54;;;;;;;2.63;0.70;;;6.60;99.90;;;;;;4991196;28;20105;-80
2022/12/30 06:21:19;;;;;;;0.93;0.40;;;6.60;99.90;;;;;;4975991;28;20066;-79
2022/12/30 06:23:45;;;;;;;0.60;0.30;;;6.60;99.90;;;;;;4986866;28;20060;-79
2022/12/30 06:26:10;;;;;;;0.60;0.32;;;6.50;99.90;;;;;;4990682;28;20039;-80
2022/12/30 06:28:36;;;;;;;0.60;0.30;;;6.50;99.90;;;;;;4989145;28;20454;-80
2022/12/30 06:31:02;;;;;;;0.85;0.60;;;6.50;99.90;;;;;;4992642;28;20541;-80
2022/12/30 06:33:28;;;;;;;1.65;0.65;;;6.40;99.90;;;;;;4974084;28;20491;-79
2022/12/30 06:35:53;;;;;;;3.50;0.80;;;6.40;99.90;;;;;;4991269;28;20467;-80
2022/12/30 06:38:19;;;;;;;2.83;1.15;;;6.30;99.90;;;;;;4989267;28;20475;-80
2022/12/30 06:40:45;;;;;;;2.67;1.00;;;6.30;99.90;;;;;;4988181;28;20042;-80
2022/12/30 06:43:12;;;;;;;3.97;1.00;;;6.20;99.90;;;;;;4992567;28;20027;-80
2022/12/30 06:45:37;;;;;;;1.85;0.90;;;6.20;99.90;;;;;;4990245;28;20026;-80
2022/12/30 06:48:03;;;;;;;1.85;0.85;;;6.20;99.90;;;;;;4990115;28;20026;-80
2022/12/30 06:50:29;;;;;;;2.00;0.70;;;6.10;99.90;;;;;;5014891;23;20037;-75
2022/12/30 06:52:55;;;;;;;2.47;0.68;;;6.10;99.90;;;;;;5034889;28;20044;-75
2022/12/30 06:55:21;;;;;;;1.25;0.70;;;6.10;99.90;;;;;;5034495;28;20029;-77
2022/12/30 06:57:48;;;;;;;1.38;0.60;;;6.00;99.90;;;;;;5010429;28;20026;-76
2022/12/30 07:00:14;;;;;;;2.58;0.88;;;6.00;99.90;;;;;;5034582;28;20037;-75
2022/12/30 07:02:40;;;;;;;2.08;0.80;;;6.00;99.90;;;;;;5031333;28;20030;-75
2022/12/30 07:05:07;;;;;;;1.05;0.43;;;6.00;99.90;;;;;;5011867;28;20108;-77
2022/12/30 07:07:33;;;;;;;1.17;0.40;;;5.90;99.90;;;;;;5010205;28;20026;-76
2022/12/30 07:09:58;;;;;;;1.30;0.55;;;5.90;99.90;;;;;;5031956;28;20528;-75
2022/12/30 07:12:24;;;;;;;1.35;0.65;;;5.90;99.90;;;;;;5015947;28;20037;-75
2022/12/30 07:14:49;;;;;;;1.02;0.50;;;5.90;99.90;;;;;;5034344;28;20025;-76
2022/12/30 07:17:15;;;;;;;1.02;0.45;;;5.90;99.90;;;;;;5031308;28;20034;-77
2022/12/30 07:19:41;;;;;;;0.77;0.50;;;5.90;99.90;;;;;;5033484;28;20060;-75
2022/12/30 07:22:06;;;;;;;0.88;0.50;;;5.80;99.90;;;;;;5009746;28;20029;-76
2022/12/30 07:24:32;;;;;;;1.73;0.63;;;5.80;99.90;;;;;;5034864;28;20026;-76
2022/12/30 07:26:58;;;;;;;1.88;0.60;;;5.80;99.90;;;;;;5026028;28;20109;-76
2022/12/30 07:29:23;;;;;;;1.67;0.55;;;5.90;99.90;;;;;;5022327;28;20025;-76
2022/12/30 07:31:49;;;;;;;1.70;0.60;;;5.90;99.90;;;;;;5033508;28;20044;-74
2022/12/30 07:34:15;;;;;;;1.58;0.60;;;5.90;99.90;;;;;;5033985;28;20025;-76
2022/12/30 07:36:40;;;;;;;2.55;1.05;;;5.90;99.90;;;;;;5032560;28;20036;-76
2022/12/30 07:39:06;;;;;;;1.63;0.70;;;5.90;99.90;;;;;;5035477;28;20090;-76
2022/12/30 07:41:33;;;;;;;1.25;0.60;;;5.90;99.90;;;;;;5019489;28;20120;-76
2022/12/30 07:43:59;;;;;;;1.02;0.50;;;5.90;99.90;;;;;;5032484;28;20075;-76
2022/12/30 07:46:24;;;;;;;0.88;0.50;;;5.90;99.90;;;;;;5014304;28;20029;-76
2022/12/30 07:48:50;;;;;;;2.13;0.60;;;5.90;99.90;;;;;;5029208;28;20382;-76
2022/12/30 07:51:17;;;;;;;2.00;0.38;;;5.90;99.90;;;;;;5028943;28;20116;-77
2022/12/30 07:53:43;;;;;;;3.10;0.52;;;5.90;99.90;;;;;;5014809;28;20037;-76
2022/12/30 07:56:11;;;;;;;1.83;0.43;;;5.90;99.90;;;;;;5032158;28;20017;-76
2022/12/30 07:58:38;;;;;;;2.05;0.60;;;6.00;99.90;;;;;;5014732;28;20075;-76
2022/12/30 08:01:09;;;;;;;1.48;0.63;;;5.90;99.90;;;;;;5027554;28;20027;-76
2022/12/30 08:03:34;;;;;;;0.70;0.50;;;6.00;99.90;;;;;;5026309;28;20069;-75
2022/12/30 08:06:09;;;;;;;1.52;0.70;;;6.00;99.90;;;;;;5018275;28;20021;-76
2022/12/30 08:08:35;;;;;;;1.67;0.45;;;6.00;99.90;;;;;;5030124;28;20030;-76
2022/12/30 08:11:02;;;;;;;1.45;0.50;;;6.10;99.90;;;;;;5028121;28;20040;-76
2022/12/30 08:13:30;;;;;;;1.45;0.70;;;6.10;99.90;;;;;;5032475;28;20397;-76
2022/12/30 08:15:56;;;;;;;5.20;0.98;;;6.10;99.90;;;;;;5014381;28;20112;-76
2022/12/30 08:18:22;;;;;;;2.50;0.70;;;6.20;99.90;;;;;;5035130;28;20534;-75
2022/12/30 08:20:47;;;;;;;1.90;0.63;;;6.20;99.90;;;;;;5021486;28;20037;-76
2022/12/30 08:23:13;;;;;;;1.80;0.70;;;6.20;99.90;;;;;;5032206;28;20382;-76
2022/12/30 08:25:39;;;;;;;1.95;0.65;;;6.20;99.90;;;;;;5026332;28;20022;-75
2022/12/30 08:28:05;;;;;;;6.07;1.80;;;6.30;99.90;;;;;;5032493;28;20022;-75
2022/12/30 08:30:31;;;;;;;1.45;0.60;;;6.30;99.90;;;;;;5018396;28;20025;-75
2022/12/30 08:32:56;;;;;;;2.28;0.55;;;6.30;99.90;;;;;;5032147;28;20133;-75
2022/12/30 08:35:22;;;;;;;3.70;0.52;;;6.40;99.90;;;;;;5033915;28;20068;-75
2022/12/30 08:37:48;;;;;;;3.38;0.68;;;6.40;99.90;;;;;;5017085;28;20398;-76
2022/12/30 08:40:13;;;;;;;1.33;0.68;;;6.40;99.90;;;;;;5015160;28;20124;-75
2022/12/30 08:42:39;;;;;;;2.15;0.60;;;6.40;99.90;;;;;;5033808;28;20025;-75
2022/12/30 08:45:06;;;;;;;2.85;0.70;;;6.40;99.90;;;;;;5022372;28;20515;-76
2022/12/30 08:47:33;;;;;;;1.52;0.50;;;6.50;99.90;;;;;;5013321;28;20030;-76
2022/12/30 08:49:59;;;;;;;2.78;0.68;;;6.50;99.90;;;;;;5032380;28;20032;-76
2022/12/30 08:52:24;;;;;;;3.05;0.80;;;6.60;99.90;;;;;;5028591;28;20029;-75
2022/12/30 08:54:50;;;;;;;3.00;0.93;;;6.50;99.90;;;;;;5032089;28;20033;-75
2022/12/30 08:57:16;;;;;;;3.08;0.75;;;6.60;99.90;;;;;;5031199;28;20029;-75
2022/12/30 08:59:41;;;;;;;0.98;0.45;;;6.60;99.90;;;;;;5022264;28;20036;-75
2022/12/30 09:02:11;;;;;;;2.08;0.82;;;6.60;99.90;;;;;;5027051;28;20022;-76
2022/12/30 09:04:37;;;;;;;3.05;0.75;;;6.70;99.90;;;;;;5031909;28;20028;-76
2022/12/30 09:07:03;;;;;;;1.05;0.70;;;6.70;99.90;;;;;;5032861;28;20017;-77
2022/12/30 09:09:29;;;;;;;1.50;0.80;;;6.80;99.90;;;;;;5033173;28;20119;-75
2022/12/30 09:11:55;;;;;;;1.52;0.93;;;6.80;99.90;;;;;;5034461;28;20026;-76
2022/12/30 09:14:22;;;;;;;5.47;1.35;;;6.80;99.90;;;;;;5034667;28;20022;-75
2022/12/30 09:16:48;;;;;;;1.90;0.80;;;6.80;99.90;;;;;;5019655;28;20885;-75
2022/12/30 09:19:14;;;;;;;3.35;0.90;;;6.90;99.90;;;;;;5028364;28;20030;-75
2022/12/30 09:21:40;;;;;;;2.53;1.20;;;6.90;99.90;;;;;;5032530;28;20049;-75
2022/12/30 09:24:05;;;;;;;1.73;0.82;;;6.90;99.90;;;;;;5034399;28;20382;-75
2022/12/30 09:26:31;;;;;;;1.88;0.80;;;7.00;99.90;;;;;;5024957;28;20029;-76
2022/12/30 09:28:58;;;;;;;2.38;1.20;;;7.00;99.90;;;;;;5029907;28;20084;-76
2022/12/30 09:31:24;;;;;;;1.63;0.95;;;7.00;99.90;;;;;;5033653;28;20200;-76
2022/12/30 09:33:50;;;;;;;1.77;0.85;;;7.10;99.90;;;;;;5035320;28;20025;-76
2022/12/30 09:36:16;;;;;;;6.47;1.10;;;7.10;99.90;;;;;;5021804;28;20124;-76
2022/12/30 09:38:42;;;;;;;0.70;0.50;;;7.20;99.90;;;;;;5028748;28;20060;-75
2022/12/30 09:44:25;;;;;;;1.05;0.45;;;7.20;99.90;;;;;;5032704;28;20466;-76
2022/12/30 09:47:03;;;;;;;1.33;0.50;;;7.30;99.90;;;;;;5030895;28;20157;-76
2022/12/30 09:49:32;;;;;;;1.52;0.88;;;7.30;99.90;;;;;;5015140;28;20028;-76
2022/12/30 09:52:11;;;;;;;0.80;0.60;;;7.30;99.90;;;;;;5010781;28;20080;-76
2022/12/30 09:54:44;;;;;;;1.85;0.55;;;7.40;99.90;;;;;;5031728;28;20104;-76
2022/12/30 09:57:30;;;;;;;1.33;0.60;;;7.40;99.90;;;;;;5019674;28;20032;-76
2022/12/30 10:00:02;;;;;;;1.00;0.60;;;7.40;99.90;;;;;;5033794;28;20025;-76
2022/12/30 10:02:33;;;;;;;1.40;0.77;;;7.50;99.90;;;;;;5025192;28;20032;-74
2022/12/30 10:05:00;;;;;;;1.67;0.88;;;7.50;99.90;;;;;;5015199;28;20029;-76
2022/12/30 10:07:49;;;;;;;0.93;0.60;;;7.60;99.90;;;;;;5032297;28;20540;-75
2022/12/30 10:10:37;;;;;;;1.50;0.77;;;7.60;99.90;;;;;;5027774;28;20155;-76
2022/12/30 10:13:19;;;;;;;1.13;0.73;;;7.60;99.90;;;;;;5012109;28;20168;-77
2022/12/30 10:16:07;;;;;;;1.73;0.80;;;7.70;99.90;;;;;;5032422;28;20029;-76
2022/12/30 10:18:50;;;;;;;1.30;0.80;;;7.70;99.90;;;;;;5014279;28;20067;-76
2022/12/30 10:21:28;;;;;;;2.20;0.60;;;7.80;99.90;;;;;;5029122;28;20192;-76
2022/12/30 10:24:44;;;;;;;5.32;1.10;;;7.80;99.90;;;;;;5027551;28;20079;-75
2022/12/30 10:27:25;;;;;;;4.10;1.80;;;7.80;99.90;;;;;;4950288;28;20078;-76
2022/12/30 10:29:51;;;;;;;1.55;0.80;;;7.90;99.90;;;;;;4951951;28;20032;-75
2022/12/30 10:32:29;;;;;;;2.78;0.63;;;7.90;99.90;;;;;;4995705;28;20112;-76
2022/12/30 10:35:02;;;;;;;1.55;0.98;;;7.90;99.90;;;;;;5010289;28;20036;-75
2022/12/30 10:37:35;;;;;;;;;;;8.00;99.90;;;;;;5031669;28;20099;-75
2022/12/30 10:40:08;;;;;;;3.40;0.70;;;8.00;99.90;;;;;;5014674;28;19921;-75
2022/12/30 10:43:11;;;;;;;3.50;1.50;;;8.00;99.90;;;;;;5031414;28;20090;-75
2022/12/30 10:46:21;;;;;;;2.55;1.40;;;8.10;99.90;;;;;;5029542;28;20036;-77
2022/12/30 10:49:13;;;;;;;1.70;0.70;;;8.10;99.90;;;;;;5026428;28;20037;-77
2022/12/30 10:51:40;;;;;;;1.60;1.17;;;8.10;99.90;;;;;;5030020;28;20044;-76
2022/12/30 10:54:09;;;;;;;3.28;0.80;;;8.10;99.90;;;;;;5029535;28;20386;-78
2022/12/30 10:56:36;;;;;;;1.90;0.80;;;8.20;99.90;;;;;;5030192;28;20047;-77
2022/12/30 10:59:25;;;;;;;2.45;0.55;;;8.20;99.90;;;;;;5013543;28;20029;-77
2022/12/30 11:01:58;;;;;;;2.45;0.47;;;8.20;99.90;;;;;;5032132;28;20112;-77
2022/12/30 11:04:41;;;;;;;1.58;0.60;;;8.30;99.90;;;;;;5031881;28;20394;-77
2022/12/30 11:07:12;;;;;;;1.40;0.52;;;8.30;99.90;;;;;;5032241;28;20545;-77
2022/12/30 11:09:38;;;;;;;3.03;0.98;;;8.30;99.90;;;;;;5029404;28;20018;-77
2022/12/30 11:15:11;;;;;;;3.03;0.80;;;8.30;99.90;;;;;;5029501;28;20486;-77
2022/12/30 11:17:55;;;;;;;1.73;0.60;;;8.40;99.90;;;;;;5014738;28;20033;-77
2022/12/30 11:20:39;;;;;;;4.07;0.77;;;8.40;99.90;;;;;;5012834;28;20033;-77
2022/12/30 11:23:39;;;;;;;2.53;0.60;;;8.50;99.90;;;;;;5027863;28;20033;-78
2022/12/30 11:26:21;;;;;;;1.50;0.50;;;8.50;99.90;;;;;;4982654;28;20076;-77
2022/12/30 11:29:11;;;;;;;1.58;0.60;;;8.60;99.90;;;;;;5013623;28;20080;-77
2022/12/30 11:31:41;;;;;;;3.63;1.23;;;8.60;99.90;;;;;;5033646;28;20379;-75
2022/12/30 11:34:18;;;;;;;1.65;0.88;;;8.70;99.90;;;;;;5027763;28;20021;-75
2022/12/30 11:36:44;;;;;;;4.25;0.88;;;8.70;99.90;;;;;;5026191;23;20034;-81
2022/12/30 11:39:22;;;;;;;4.30;0.50;;;8.70;99.90;;;;;;4991029;28;20045;-82
2022/12/30 11:41:56;;;;;;;4.78;0.90;;;8.70;99.90;;;;;;4994534;28;20022;-80
2022/12/30 11:44:26;;;;;;;1.85;0.50;;;8.80;99.90;;;;;;4997445;28;20149;-79
2022/12/30 11:46:58;;;;;;;2.90;0.60;;;8.80;99.90;;;;;;4973949;28;20061;-79
2022/12/30 11:49:32;;;;;;;1.52;0.60;;;8.80;99.90;;;;;;4987474;28;20081;-81
2022/12/30 11:51:59;;;;;;;;;;;8.90;99.90;;;;;;4994869;28;20497;-80
2022/12/30 11:54:27;;;;;;;3.50;0.80;;;8.90;99.90;;;;;;5000869;28;19961;-80
2022/12/30 11:57:18;;;;;;;0.63;0.40;;;8.90;99.90;;;;;;4986573;28;20023;-81
2022/12/30 11:59:47;;;;;;;2.15;0.60;;;9.00;99.90;;;;;;4991774;28;20057;-80
2022/12/30 12:02:25;;;;;;;0.63;0.30;;;9.00;99.90;;;;;;4973020;28;20034;-81
2022/12/30 12:04:51;;;;;;;1.50;0.60;;;9.00;99.90;;;;;;4971327;28;20456;-81
2022/12/30 12:07:16;;;;;;;3.97;0.77;;;9.00;99.90;;;;;;4999922;28;20101;-81
2022/12/30 12:10:19;;;;;;;3.58;1.48;;;9.00;99.90;;;;;;4996461;28;20018;-81
2022/12/30 12:13:14;;;;;;;4.25;2.28;;;9.00;99.90;;;;;;4977322;28;20088;-81
2022/12/30 12:15:46;;;;;;;1.92;1.10;;;9.10;99.90;;;;;;4962973;28;21465;-80
2022/12/30 12:18:30;;;;;;;3.75;1.10;;;9.10;99.90;;;;;;4980980;28;20030;-80
2022/12/30 12:21:17;;;;;;;3.55;1.20;;;9.10;99.90;;;;;;4971284;28;20055;-80
2022/12/30 12:23:52;;;;;;;12.27;4.40;;;9.10;99.90;;;;;;5009135;28;20030;-80
2022/12/30 12:26:29;;;;;;;38.20;14.57;;;9.10;99.90;;;;;;4991508;28;20108;-79
2022/12/30 12:28:56;;;;;;;33.15;7.60;;;9.10;99.90;;;;;;4995974;28;20057;-79
2022/12/30 12:31:34;;;;;;;12.82;4.47;;;9.10;99.90;;;;;;4994305;28;20027;-80
2022/12/30 12:34:39;;;;;;;9.40;2.65;;;9.10;99.90;;;;;;4994798;28;20026;-81
2022/12/30 12:37:13;;;;;;;18.45;5.55;;;9.10;99.90;;;;;;4995206;28;20027;-80
2022/12/30 12:40:07;;;;;;;20.23;5.40;;;9.10;99.90;;;;;;4998084;28;20041;-80
2022/12/30 12:42:42;;;;;;;12.48;5.07;;;9.10;99.90;;;;;;4997372;28;20026;-81
2022/12/30 12:45:21;;;;;;;45.45;17.58;;;9.10;99.90;;;;;;4996661;28;20030;-80
2022/12/30 12:48:12;;;;;;;13.57;5.22;;;9.10;99.90;;;;;;4987884;28;20061;-81
2022/12/30 12:50:56;;;;;;;12.88;4.90;;;9.10;99.90;;;;;;5022242;28;20057;-81
2022/12/30 12:53:46;;;;;;;21.98;11.30;;;9.20;99.90;;;;;;5026081;28;20093;-81
2022/12/30 12:56:46;;;;;;;158.27;53.13;;;9.20;99.90;;;;;;5015298;28;20123;-81
2022/12/30 12:59:26;;;;;;;101.97;42.38;;;9.20;99.90;;;;;;5008373;28;20061;-79
2022/12/30 13:02:37;;;;;;;44.50;20.33;;;9.20;99.90;;;;;;5011875;28;20066;-79
2022/12/30 13:05:23;;;;;;;107.90;46.47;;;9.30;99.90;;;;;;4983135;28;20042;-79
2022/12/30 13:08:24;;;;;;;76.53;33.70;;;9.30;99.90;;;;;;4962820;28;20066;-80
2022/12/30 13:11:14;;;;;;;56.53;28.70;;;9.30;99.90;;;;;;4974921;28;20038;-80
2022/12/30 13:13:53;;;;;;;168.55;96.88;;;9.30;99.90;;;;;;4992772;28;20033;-80
2022/12/30 13:16:40;;;;;;;37.35;20.98;;;9.30;99.90;;;;;;4990155;28;20026;-80
2022/12/30 13:19:13;;;;;;;139.48;65.68;;;9.40;99.90;;;;;;4993799;28;20026;-79
2022/12/30 13:21:39;;;;;;;83.33;41.73;;;9.40;99.90;;;;;;4988191;28;20026;-81
2022/12/30 13:24:07;;;;;;;40.67;17.70;;;9.40;99.90;;;;;;4975000;28;20029;-81
2022/12/30 13:26:35;;;;;;;15.60;8.77;;;9.40;99.90;;;;;;4973564;28;20408;-81
2022/12/30 13:29:03;;;;;;;9.77;5.38;;;9.40;99.90;;;;;;4979563;28;20027;-80
2022/12/30 13:31:55;;;;;;;7.43;3.25;;;9.40;99.90;;;;;;4989756;28;20081;-80
2022/12/30 13:34:40;;;;;;;4.03;2.03;;;9.40;99.90;;;;;;4973196;28;20053;-82
2022/12/30 13:37:12;;;;;;;;;;;9.40;99.90;;;;;;4993597;28;20030;-82
2022/12/30 13:39:49;;;;;;;5.53;2.38;;;9.50;99.90;;;;;;4982178;28;19918;-81
2022/12/30 13:42:30;;;;;;;5.57;2.45;;;9.50;99.90;;;;;;4973660;28;20027;-82
2022/12/30 13:44:56;;;;;;;4.85;1.80;;;9.50;99.90;;;;;;4994526;28;20026;-80
2022/12/30 13:47:42;;;;;;;9.10;2.50;;;9.50;99.90;;;;;;4989423;28;20080;-81
2022/12/30 13:50:18;;;;;;;3.55;2.22;;;9.50;99.90;;;;;;4995685;28;20503;-81
2022/12/30 13:52:47;;;;;;;4.93;2.17;;;9.50;99.90;;;;;;4991623;28;20034;-80
2022/12/30 13:55:30;;;;;;;3.80;1.88;;;9.50;99.90;;;;;;4989343;28;20084;-82
2022/12/30 13:58:12;;;;;;;3.92;1.77;;;9.50;99.90;;;;;;4984743;28;20126;-80
2022/12/30 14:00:41;;;;;;;4.30;2.35;;;9.50;99.90;;;;;;4990665;28;20034;-80
2022/12/30 14:03:24;;;;;;;4.75;2.10;;;9.50;99.90;;;;;;4991293;28;20014;-80
2022/12/30 14:05:58;;;;;;;2.28;1.45;;;9.50;99.90;;;;;;4991680;28;20712;-80
2022/12/30 14:08:24;;;;;;;3.38;1.48;;;9.50;99.90;;;;;;4991510;28;20030;-81
2022/12/30 14:11:02;;;;;;;3.17;0.90;;;9.50;99.90;;;;;;4992808;28;20033;-80
2022/12/30 14:13:29;;;;;;;2.83;0.90;;;9.40;99.90;;;;;;4988632;28;20037;-81
2022/12/30 14:16:33;;;;;;;1.80;0.63;;;9.40;99.90;;;;;;4989065;28;20501;-79